CYRA

Rae Lakes Airport

Gamètì, Northwest Territories, Canada
METAR CYRA 191700Z 27008G15KT 15SM FEW030 OVC080 11/09 A3003 RMK CU2AC6 SLP180
Observed Flight Rules
Aug-19 @ 17:00 UTC (14 minutes ago) Visual Flight Rules
Wind Visibility Clouds
270° at 8 knots
 Gusting to 15 knots
15 miles
  • Few at 3,000' AGL
  • Overcast at 8,000' AGL
Temperatures Readings
Current 11°C / 52°F
Dewpoint 9°C / 48°F
Humidity 88%
Altimeter 30.03" Hg
Pressure 1018 hPa
Elevation 213
METAR CYRA 191700Z 27008G15KT 15SM FEW030 OVC080 11/09 A3003 RMK CU2AC6 SLP180
Observed Flight Rules
Aug-19 @ 17:00 UTC
(14 minutes ago)
VFR
Wind Visibility
270° at 8 knots
 Gusting to 15 knots
15 miles
Clouds
  • Few at 3,000' AGL
  • Overcast at 8,000' AGL
Temperature Dewpoint
11°C / 52°F 9°C / 48°F
Humidity Altimeter Pressure
88% 30.03" Hg 1018 hPa